To NAV CANADA Home Page Login to a new session Search on AWWS site Feedback and Comments Disclaimer Vers la page française équivalente Tips FAQ What's new on the site To the Forecasts and Observations / NOTAM section To "File a Flight Plan" website Publications and other links Update of the User's profile FIC Telephone Numbers My Weather Data Folder Route Weather Data Regional Weather Data Local Weather Data To the Forecasts and Observations / NOTAM section
Request Generated 07/25/2016 at 20:03:45 UTC . Weather information available at that time is displayed.

METAR/TAF

FREDERICTON INTL/NB    (show WxCam)

METAR CYFC 252000Z AUTO 16009KT 9SM FEW070 28/15 A2982 RMK SLP100
DENSITY ALT 1700FT=
METAR CYFC 251900Z AUTO 17008KT 9SM BKN060 28/14 A2983 RMK SLP104
DENSITY ALT 1600FT=
METAR CYFC 251800Z AUTO VRB02KT 9SM FEW060 28/14 A2985 RMK SLP110
DENSITY ALT 1600FT=

TAF CYFC 251738Z 2518/2606 VRB03KT P6SM SCT050 BKN140 TEMPO 2518/2604
BKN050
BECMG 2520/2522 19006KT
FM260400 19008KT P6SM -SHRA OVC090
RMK FCST BASED ON AUTO OBS. NXT FCST BY 260000Z=
Your time UTC time
Weather data provided by Environment Canada and NAV CANADA